createdAt,value
2018-09-02T00:00:15.945Z,0.00
2018-09-02T00:01:15.926Z,0.00
2018-09-02T00:02:15.901Z,0.00
2018-09-02T00:03:15.887Z,0.00
2018-09-02T00:04:15.865Z,0.00
2018-09-02T00:05:15.842Z,0.00
2018-09-02T00:06:15.821Z,0.00
2018-09-02T00:07:15.801Z,0.00
2018-09-02T00:08:15.783Z,0.00
2018-09-02T00:09:15.759Z,0.00
2018-09-02T00:10:15.736Z,0.00
2018-09-02T00:11:15.723Z,0.00
2018-09-02T00:12:15.698Z,0.00
2018-09-02T00:13:15.675Z,0.00
2018-09-02T00:14:15.656Z,0.00
2018-09-02T00:15:15.637Z,0.00
2018-09-02T00:16:15.617Z,0.00
2018-09-02T00:17:15.599Z,0.00
2018-09-02T00:18:15.577Z,0.00
2018-09-02T00:19:15.555Z,0.00
2018-09-02T00:20:15.561Z,0.00
2018-09-02T00:21:15.512Z,0.00
2018-09-02T00:22:15.498Z,0.00
2018-09-02T00:23:15.484Z,0.00
2018-09-02T00:24:15.463Z,0.00
2018-09-02T00:25:15.438Z,0.00
2018-09-02T00:26:15.433Z,0.00
2018-09-02T00:27:15.392Z,0.00
2018-09-02T00:28:15.373Z,0.00
2018-09-02T00:29:15.356Z,0.00
2018-09-02T00:30:15.334Z,0.00
2018-09-02T00:31:15.318Z,0.00
2018-09-02T00:32:15.296Z,0.00
2018-09-02T00:33:15.298Z,0.00
2018-09-02T00:34:15.261Z,0.00
2018-09-02T00:35:15.332Z,0.00
2018-09-02T00:36:15.454Z,0.00
2018-09-02T00:37:15.264Z,0.00
2018-09-02T00:38:15.296Z,0.00
2018-09-02T00:39:15.153Z,0.00
2018-09-02T00:40:15.243Z,0.00
2018-09-02T00:41:15.112Z,0.00
2018-09-02T00:42:15.102Z,0.00
2018-09-02T00:43:15.082Z,0.00
2018-09-02T00:44:15.118Z,0.00
2018-09-02T00:45:15.161Z,0.00
2018-09-02T00:46:15.093Z,0.00
2018-09-02T00:47:14.997Z,0.00
2018-09-02T00:48:14.975Z,0.00
2018-09-02T00:49:14.955Z,0.00
2018-09-02T00:50:15.087Z,0.00
2018-09-02T00:51:14.923Z,0.00
2018-09-02T00:52:14.901Z,0.00
2018-09-02T00:53:14.889Z,0.00
2018-09-02T00:54:14.978Z,0.00
2018-09-02T00:55:14.840Z,0.00
2018-09-02T00:56:14.818Z,0.00
2018-09-02T00:57:14.995Z,0.00
2018-09-02T00:58:14.786Z,0.00
2018-09-02T00:59:14.773Z,0.00
2018-09-02T01:00:14.750Z,0.00
2018-09-02T01:01:14.735Z,0.00
2018-09-02T01:02:14.706Z,0.00
2018-09-02T01:03:14.691Z,0.00
2018-09-02T01:04:14.673Z,0.00
2018-09-02T01:05:14.654Z,0.00
2018-09-02T01:06:14.635Z,0.00
2018-09-02T01:07:14.612Z,0.00
2018-09-02T01:08:14.593Z,0.00
2018-09-02T01:09:14.612Z,0.00
2018-09-02T01:10:14.556Z,0.00
2018-09-02T01:11:14.537Z,0.00
2018-09-02T01:12:14.515Z,0.00
2018-09-02T01:13:14.498Z,0.00
2018-09-02T01:14:14.479Z,0.00
2018-09-02T01:15:14.461Z,0.00
2018-09-02T01:16:14.441Z,0.00
2018-09-02T01:17:14.428Z,0.00
2018-09-02T01:18:14.409Z,0.00
2018-09-02T01:19:14.384Z,0.00
2018-09-02T01:20:14.370Z,0.00
2018-09-02T01:21:14.349Z,0.00
2018-09-02T01:22:14.327Z,0.00
2018-09-02T01:23:14.321Z,0.00
2018-09-02T01:24:14.291Z,0.00
2018-09-02T01:25:14.272Z,0.00
2018-09-02T01:26:14.257Z,0.00
2018-09-02T01:27:14.246Z,0.00
2018-09-02T01:28:14.215Z,0.00
2018-09-02T01:29:14.196Z,0.00
2018-09-02T01:30:14.180Z,0.00
2018-09-02T01:31:14.165Z,0.00
2018-09-02T01:32:14.144Z,0.00
2018-09-02T01:33:14.123Z,0.00
2018-09-02T01:34:14.109Z,0.00
2018-09-02T01:35:14.087Z,0.00
2018-09-02T01:36:14.074Z,0.00
2018-09-02T01:37:14.052Z,0.00
2018-09-02T01:38:14.026Z,0.00
2018-09-02T01:39:14.021Z,0.00
2018-09-02T01:40:13.998Z,0.00
2018-09-02T01:41:13.982Z,0.00
2018-09-02T01:42:13.956Z,0.00
2018-09-02T01:43:13.940Z,0.00
2018-09-02T01:44:13.922Z,0.00
2018-09-02T01:45:13.909Z,0.00
2018-09-02T01:46:13.889Z,0.00
2018-09-02T01:47:13.868Z,0.00
2018-09-02T01:48:13.848Z,0.00
2018-09-02T01:49:13.835Z,0.00
2018-09-02T01:50:13.815Z,0.00
2018-09-02T01:51:13.793Z,0.00
2018-09-02T01:52:13.774Z,0.00
2018-09-02T01:53:13.762Z,0.00
2018-09-02T01:54:13.743Z,0.00
2018-09-02T01:55:13.724Z,0.00
2018-09-02T01:56:13.705Z,0.00
2018-09-02T01:57:13.689Z,0.00
2018-09-02T01:58:13.663Z,0.00
2018-09-02T01:59:13.651Z,0.00
2018-09-02T02:00:13.634Z,0.00
2018-09-02T02:01:13.615Z,0.00
2018-09-02T02:02:13.590Z,0.00
2018-09-02T02:03:13.574Z,0.00
2018-09-02T02:04:13.562Z,0.00
2018-09-02T02:05:13.536Z,0.00
2018-09-02T02:06:13.523Z,0.00
2018-09-02T02:07:13.498Z,0.00
2018-09-02T02:08:13.478Z,0.00
2018-09-02T02:09:13.463Z,0.00
2018-09-02T02:10:13.453Z,0.00
2018-09-02T02:11:13.424Z,0.00
2018-09-02T02:12:13.411Z,0.00
2018-09-02T02:13:13.392Z,0.00
2018-09-02T02:14:13.377Z,0.00
2018-09-02T02:15:13.356Z,0.00
2018-09-02T02:16:13.340Z,0.00
2018-09-02T02:17:13.314Z,0.00
2018-09-02T02:18:13.304Z,0.00
2018-09-02T02:19:13.276Z,0.00
2018-09-02T02:20:13.269Z,0.00
2018-09-02T02:21:13.244Z,0.00
2018-09-02T02:22:13.222Z,0.00
2018-09-02T02:23:13.209Z,0.00
2018-09-02T02:24:13.193Z,0.00
2018-09-02T02:25:13.175Z,0.00
2018-09-02T02:26:13.156Z,0.00
2018-09-02T02:27:13.136Z,0.00
2018-09-02T02:28:13.115Z,0.00
2018-09-02T02:29:13.094Z,0.00
2018-09-02T02:30:13.075Z,0.00
2018-09-02T02:31:13.063Z,0.00
2018-09-02T02:32:13.044Z,0.00
2018-09-02T02:33:13.021Z,0.00
2018-09-02T02:34:13.003Z,0.00
2018-09-02T02:35:12.987Z,0.00
2018-09-02T02:36:12.973Z,0.00
2018-09-02T02:37:12.948Z,0.00
2018-09-02T02:38:12.934Z,0.00
2018-09-02T02:39:12.910Z,0.00
2018-09-02T02:40:12.889Z,0.00
2018-09-02T02:41:12.873Z,0.00
2018-09-02T02:42:12.854Z,0.00
2018-09-02T02:43:12.838Z,0.00
2018-09-02T02:44:12.822Z,0.00
2018-09-02T02:45:12.805Z,0.00
2018-09-02T02:46:12.787Z,0.00
2018-09-02T02:47:12.771Z,0.00
2018-09-02T02:48:12.748Z,0.00
2018-09-02T02:49:12.725Z,0.00
2018-09-02T02:50:12.712Z,0.00
2018-09-02T02:51:12.690Z,0.00
2018-09-02T02:52:12.674Z,0.00
2018-09-02T02:53:12.652Z,0.00
2018-09-02T02:54:12.652Z,0.00
2018-09-02T02:55:12.623Z,0.00
2018-09-02T02:56:12.617Z,0.00
2018-09-02T02:57:12.578Z,0.00
2018-09-02T02:58:12.559Z,0.00
2018-09-02T02:59:12.539Z,0.00
2018-09-02T03:00:12.524Z,0.00
2018-09-02T03:01:12.507Z,0.00
2018-09-02T03:02:12.485Z,0.00
2018-09-02T03:03:12.469Z,0.00
2018-09-02T03:04:12.452Z,0.00
2018-09-02T03:05:12.437Z,0.00
2018-09-02T03:06:12.421Z,0.00
2018-09-02T03:07:12.398Z,0.00
2018-09-02T03:08:12.377Z,0.00
2018-09-02T03:09:12.362Z,0.00
2018-09-02T03:10:12.337Z,0.00
2018-09-02T03:11:12.325Z,0.00
2018-09-02T03:12:12.310Z,0.00
2018-09-02T03:13:12.284Z,0.00
2018-09-02T03:14:12.271Z,0.00
2018-09-02T03:15:12.252Z,0.00
2018-09-02T03:16:12.236Z,0.00
2018-09-02T03:17:12.217Z,0.00
2018-09-02T03:18:12.196Z,0.00
2018-09-02T03:19:12.181Z,0.00
2018-09-02T03:20:12.160Z,0.00
2018-09-02T03:21:12.141Z,0.00
2018-09-02T03:22:12.123Z,0.00
2018-09-02T03:23:12.103Z,0.00
2018-09-02T03:24:12.088Z,0.00
2018-09-02T03:25:12.065Z,0.00
2018-09-02T03:26:12.046Z,0.00
2018-09-02T03:27:12.035Z,0.00
2018-09-02T03:28:12.010Z,0.00
2018-09-02T03:29:11.997Z,0.00
2018-09-02T03:30:11.978Z,0.00
2018-09-02T03:31:11.960Z,0.00
2018-09-02T03:32:11.940Z,0.00
2018-09-02T03:33:11.934Z,0.00
2018-09-02T03:34:11.901Z,0.00
2018-09-02T03:35:11.886Z,0.00
2018-09-02T03:36:11.864Z,0.00
2018-09-02T03:37:11.847Z,0.00
2018-09-02T03:38:11.829Z,0.00
2018-09-02T03:39:11.812Z,0.00
2018-09-02T03:40:11.800Z,0.00
2018-09-02T03:41:11.773Z,0.00
2018-09-02T03:42:11.752Z,0.00
2018-09-02T03:43:11.745Z,0.00
2018-09-02T03:44:11.724Z,0.00
2018-09-02T03:45:11.703Z,0.00
2018-09-02T03:46:11.689Z,0.00
2018-09-02T03:47:11.662Z,0.00
2018-09-02T03:48:11.646Z,0.00
2018-09-02T03:49:11.630Z,0.00
2018-09-02T03:50:11.606Z,0.00
2018-09-02T03:51:11.595Z,0.00
2018-09-02T03:52:11.579Z,0.00
2018-09-02T03:53:11.566Z,0.00
2018-09-02T03:54:11.542Z,0.00
2018-09-02T03:55:11.522Z,0.00
2018-09-02T03:56:11.510Z,0.00
2018-09-02T03:57:11.481Z,0.00
2018-09-02T03:58:11.461Z,0.00
2018-09-02T03:59:11.445Z,0.00
2018-09-02T04:00:11.430Z,0.00
2018-09-02T04:01:11.407Z,0.00
2018-09-02T04:02:11.394Z,0.00
2018-09-02T04:03:11.374Z,0.00
2018-09-02T04:04:11.557Z,0.00
2018-09-02T04:05:11.368Z,0.00
2018-09-02T04:06:11.325Z,0.00
2018-09-02T04:07:11.302Z,0.00
2018-09-02T04:08:11.284Z,0.00
2018-09-02T04:09:11.267Z,0.00
2018-09-02T04:10:11.241Z,0.00
2018-09-02T04:11:11.235Z,0.00
2018-09-02T04:12:11.210Z,4.00
2018-09-02T04:13:11.194Z,4.00
2018-09-02T04:14:11.171Z,4.00
2018-09-02T04:15:11.153Z,4.00
2018-09-02T04:16:11.144Z,4.00
2018-09-02T04:17:11.115Z,8.00
2018-09-02T04:18:11.095Z,8.00
2018-09-02T04:19:11.086Z,8.00
2018-09-02T04:20:11.073Z,12.00
2018-09-02T04:21:11.043Z,12.00
2018-09-02T04:22:11.029Z,16.00
2018-09-02T04:23:11.029Z,20.00
2018-09-02T04:24:10.993Z,20.00
2018-09-02T04:25:10.974Z,24.00
2018-09-02T04:26:10.957Z,28.00
2018-09-02T04:27:10.941Z,36.00
2018-09-02T04:28:10.922Z,40.00
2018-09-02T04:29:10.909Z,48.00
2018-09-02T04:30:10.891Z,56.00
2018-09-02T04:31:10.870Z,64.00
2018-09-02T04:32:10.845Z,72.00
2018-09-02T04:33:10.829Z,80.00
2018-09-02T04:34:10.810Z,88.00
2018-09-02T04:35:10.788Z,104.00
2018-09-02T04:36:10.772Z,112.00
2018-09-02T04:37:10.760Z,128.00
2018-09-02T04:38:10.735Z,144.00
2018-09-02T04:39:10.721Z,160.00
2018-09-02T04:40:10.696Z,180.00
2018-09-02T04:41:10.683Z,196.00
2018-09-02T04:42:10.657Z,220.00
2018-09-02T04:43:10.641Z,244.00
2018-09-02T04:44:10.626Z,260.00
2018-09-02T04:45:10.648Z,280.00
2018-09-02T04:46:10.588Z,292.00
2018-09-02T04:47:10.575Z,308.00
2018-09-02T04:48:10.548Z,320.00
2018-09-02T04:49:10.534Z,340.00
2018-09-02T04:50:10.517Z,356.00
2018-09-02T04:51:10.500Z,380.00
2018-09-02T04:52:10.490Z,400.00
2018-09-02T04:53:10.464Z,416.00
2018-09-02T04:54:10.484Z,440.00
2018-09-02T04:55:10.421Z,452.00
2018-09-02T04:56:10.411Z,460.00
2018-09-02T04:57:10.391Z,476.00
2018-09-02T04:58:10.365Z,488.00
2018-09-02T04:59:10.346Z,500.00
2018-09-02T05:00:10.374Z,528.00
2018-09-02T05:01:10.313Z,556.00
2018-09-02T05:02:10.300Z,584.00
2018-09-02T05:03:10.279Z,612.00
2018-09-02T05:04:10.256Z,620.00
2018-09-02T05:05:10.240Z,624.00
2018-09-02T05:06:10.219Z,640.00
2018-09-02T05:07:10.198Z,668.00
2018-09-02T05:08:10.186Z,684.00
2018-09-02T05:09:10.160Z,704.00
2018-09-02T05:10:10.146Z,732.00
2018-09-02T05:11:10.123Z,748.00
2018-09-02T05:12:10.109Z,760.00
2018-09-02T05:13:10.086Z,764.00
2018-09-02T05:14:10.127Z,764.00
2018-09-02T05:15:10.055Z,744.00
2018-09-02T05:16:10.026Z,732.00
2018-09-02T05:17:10.016Z,712.00
2018-09-02T05:18:09.990Z,692.00
2018-09-02T05:19:09.971Z,672.00
2018-09-02T05:20:09.958Z,676.00
2018-09-02T05:21:09.959Z,708.00
2018-09-02T05:22:09.923Z,736.00
2018-09-02T05:23:09.902Z,772.00
2018-09-02T05:24:09.882Z,776.00
2018-09-02T05:25:09.865Z,752.00
2018-09-02T05:26:09.846Z,724.00
2018-09-02T05:27:09.834Z,696.00
2018-09-02T05:28:09.805Z,688.00
2018-09-02T05:29:09.789Z,684.00
2018-09-02T05:30:09.770Z,684.00
2018-09-02T05:31:09.748Z,708.00
2018-09-02T05:32:09.732Z,760.00
2018-09-02T05:33:09.733Z,844.00
2018-09-02T05:34:09.697Z,900.00
2018-09-02T05:35:09.688Z,968.00
2018-09-02T05:36:09.653Z,1064.00
2018-09-02T05:37:09.647Z,1212.00
2018-09-02T05:38:09.621Z,1280.00
2018-09-02T05:39:09.608Z,1332.00
2018-09-02T05:40:09.582Z,1388.00
2018-09-02T05:41:09.566Z,1508.00
2018-09-02T05:42:09.553Z,1584.00
2018-09-02T05:43:09.536Z,1560.00
2018-09-02T05:44:09.568Z,1628.00
2018-09-02T05:45:09.497Z,1668.00
2018-09-02T05:46:09.482Z,1744.00
2018-09-02T05:47:09.461Z,1880.00
2018-09-02T05:48:09.436Z,1904.00
2018-09-02T05:49:09.417Z,1996.00
2018-09-02T05:50:09.468Z,2080.00
2018-09-02T05:51:09.382Z,2256.00
2018-09-02T05:52:09.366Z,2272.00
2018-09-02T05:53:09.364Z,2220.00
2018-09-02T05:54:09.327Z,2296.00
2018-09-02T05:55:09.311Z,2412.00
2018-09-02T05:56:09.295Z,2728.00
2018-09-02T05:57:09.280Z,2960.00
2018-09-02T05:58:09.260Z,3192.00
2018-09-02T05:59:09.242Z,3016.00
2018-09-02T06:00:09.226Z,2968.00
2018-09-02T06:01:09.203Z,3004.00
2018-09-02T06:02:09.189Z,3000.00
2018-09-02T06:03:09.172Z,2964.00
2018-09-02T06:04:09.156Z,2984.00
2018-09-02T06:05:09.136Z,2948.00
2018-09-02T06:06:09.128Z,2644.00
2018-09-02T06:07:09.099Z,2384.00
2018-09-02T06:08:09.075Z,2172.00
2018-09-02T06:09:09.062Z,1944.00
2018-09-02T06:10:09.049Z,2016.00
2018-09-02T06:11:09.027Z,2172.00
2018-09-02T06:12:09.008Z,2388.00
2018-09-02T06:13:08.996Z,2436.00
2018-09-02T06:14:08.976Z,2528.00
2018-09-02T06:15:08.964Z,2984.00
2018-09-02T06:16:08.948Z,3220.00
2018-09-02T06:17:08.981Z,3344.00
2018-09-02T06:18:08.913Z,3296.00
2018-09-02T06:19:08.898Z,3128.00
2018-09-02T06:20:08.881Z,3216.00
2018-09-02T06:21:08.856Z,2996.00
2018-09-02T06:22:08.840Z,2708.00
2018-09-02T06:23:08.827Z,2876.00
2018-09-02T06:24:08.808Z,3016.00
2018-09-02T06:25:08.795Z,3212.00
2018-09-02T06:26:08.770Z,3272.00
2018-09-02T06:27:08.754Z,3524.00
2018-09-02T06:28:08.745Z,3656.00
2018-09-02T06:29:08.729Z,3784.00
2018-09-02T06:30:08.721Z,3800.00
2018-09-02T06:31:08.694Z,3800.00
2018-09-02T06:32:08.680Z,3836.00
2018-09-02T06:33:08.655Z,3772.00
2018-09-02T06:34:08.641Z,3848.00
2018-09-02T06:35:08.632Z,3708.00
2018-09-02T06:36:08.610Z,3828.00
2018-09-02T06:37:08.589Z,4288.00
2018-09-02T06:38:08.576Z,4504.00
2018-09-02T06:39:08.564Z,4708.00
2018-09-02T06:40:08.539Z,4864.00
2018-09-02T06:41:08.529Z,5176.00
2018-09-02T06:42:08.510Z,5308.00
2018-09-02T06:43:08.498Z,5332.00
2018-09-02T06:44:08.474Z,5924.00
2018-09-02T06:45:08.462Z,6700.00
2018-09-02T06:46:08.443Z,7048.00
2018-09-02T06:47:08.430Z,7396.00
2018-09-02T06:48:08.420Z,7444.00
2018-09-02T06:49:08.401Z,7200.00
2018-09-02T06:50:08.379Z,6924.00
2018-09-02T06:51:08.367Z,7044.00
2018-09-02T06:52:08.348Z,7196.00
2018-09-02T06:53:08.339Z,7412.00
2018-09-02T06:54:08.316Z,7688.00
2018-09-02T06:55:08.310Z,7844.00
2018-09-02T06:56:08.291Z,7432.00
2018-09-02T06:57:08.275Z,6936.00
2018-09-02T06:58:08.261Z,6604.00
2018-09-02T06:59:08.239Z,6724.00
2018-09-02T07:00:08.229Z,6772.00
2018-09-02T07:01:08.214Z,6736.00
2018-09-02T07:02:08.198Z,7148.00
2018-09-02T07:03:08.185Z,8148.00
2018-09-02T07:04:08.165Z,8628.00
2018-09-02T07:05:08.163Z,8396.00
2018-09-02T07:06:08.140Z,7744.00
2018-09-02T07:07:08.163Z,7028.00
2018-09-02T07:08:08.111Z,6200.00
2018-09-02T07:09:08.092Z,5348.00
2018-09-02T07:10:08.076Z,4572.00
2018-09-02T07:11:08.069Z,3996.00
2018-09-02T07:12:08.047Z,3816.00
2018-09-02T07:13:08.030Z,3852.00
2018-09-02T07:14:08.018Z,4064.00
2018-09-02T07:15:08.012Z,4448.00
2018-09-02T07:16:07.992Z,4468.00
2018-09-02T07:17:07.976Z,4464.00
2018-09-02T07:18:08.671Z,4548.00
2018-09-02T07:19:07.947Z,4548.00
2018-09-02T07:20:08.021Z,4532.00
2018-09-02T07:21:07.921Z,4500.00
2018-09-02T07:22:07.902Z,4376.00
2018-09-02T07:23:07.893Z,4312.00
2018-09-02T07:24:07.874Z,4444.00
2018-09-02T07:25:07.854Z,4536.00
2018-09-02T07:26:07.851Z,4716.00
2018-09-02T07:27:07.828Z,5236.00
2018-09-02T07:28:07.812Z,5820.00
2018-09-02T07:29:07.793Z,6256.00
2018-09-02T07:30:07.782Z,6484.00
2018-09-02T07:31:07.768Z,6700.00
2018-09-02T07:32:07.752Z,7236.00
2018-09-02T07:33:07.741Z,8028.00
2018-09-02T07:34:07.729Z,8492.00
2018-09-02T07:35:07.710Z,9032.00
2018-09-02T07:36:07.694Z,9264.00
2018-09-02T07:37:07.680Z,9472.00
2018-09-02T07:38:07.668Z,9596.00
2018-09-02T07:39:07.659Z,9132.00
2018-09-02T07:40:07.634Z,7872.00
2018-09-02T07:41:07.620Z,6884.00
2018-09-02T07:42:07.614Z,6568.00
2018-09-02T07:43:07.591Z,6564.00
2018-09-02T07:44:07.624Z,7200.00
2018-09-02T07:45:07.562Z,8156.00
2018-09-02T07:46:07.550Z,9536.00
2018-09-02T07:47:07.543Z,11692.00
2018-09-02T07:48:07.524Z,12432.00
2018-09-02T07:49:07.505Z,11836.00
2018-09-02T07:50:07.495Z,12640.00
2018-09-02T07:51:07.482Z,12376.00
2018-09-02T07:52:07.469Z,11076.00
2018-09-02T07:53:07.450Z,10116.00
2018-09-02T07:54:07.444Z,9604.00
2018-09-02T07:55:07.421Z,9276.00
2018-09-02T07:56:07.415Z,8972.00
2018-09-02T07:57:07.407Z,9036.00
2018-09-02T07:58:07.383Z,9960.00
2018-09-02T07:59:07.371Z,11200.00
2018-09-02T08:00:07.356Z,11968.00
2018-09-02T08:01:07.340Z,12968.00
2018-09-02T08:02:07.327Z,14436.00
2018-09-02T08:03:07.311Z,15220.00
2018-09-02T08:04:07.299Z,14476.00
2018-09-02T08:05:07.289Z,14932.00
2018-09-02T08:06:07.273Z,13876.00
2018-09-02T08:07:07.267Z,12988.00
2018-09-02T08:08:07.253Z,12236.00
2018-09-02T08:09:07.273Z,12444.00
2018-09-02T08:10:07.222Z,12716.00
2018-09-02T08:11:07.209Z,12828.00
2018-09-02T08:12:07.193Z,13296.00
2018-09-02T08:13:07.183Z,14572.00
2018-09-02T08:14:07.177Z,15516.00
2018-09-02T08:15:07.155Z,16060.00
2018-09-02T08:16:07.139Z,17356.00
2018-09-02T08:17:07.127Z,17540.00
2018-09-02T08:18:07.113Z,18336.00
2018-09-02T08:19:07.104Z,19232.00
2018-09-02T08:20:07.094Z,19936.00
2018-09-02T08:21:07.086Z,20736.00
2018-09-02T08:22:07.067Z,20288.00
2018-09-02T08:23:07.053Z,20992.00
2018-09-02T08:24:07.046Z,19040.00
2018-09-02T08:25:07.033Z,17696.00
2018-09-02T08:26:07.024Z,17192.00
2018-09-02T08:27:07.005Z,14844.00
2018-09-02T08:28:06.992Z,15636.00
2018-09-02T08:29:06.984Z,15496.00
2018-09-02T08:30:06.966Z,15572.00
2018-09-02T08:31:06.960Z,15732.00
2018-09-02T08:32:06.946Z,15580.00
2018-09-02T08:33:07.043Z,15952.00
2018-09-02T08:34:06.926Z,16044.00
2018-09-02T08:35:06.915Z,17180.00
2018-09-02T08:36:06.896Z,17384.00
2018-09-02T08:37:06.890Z,20192.00
2018-09-02T08:38:06.874Z,19552.00
2018-09-02T08:39:06.884Z,17920.00
2018-09-02T08:40:06.850Z,19168.00
2018-09-02T08:41:06.836Z,19744.00
2018-09-02T08:42:06.832Z,19296.00
2018-09-02T08:43:06.816Z,18368.00
2018-09-02T08:44:06.815Z,18592.00
2018-09-02T08:45:06.797Z,18496.00
2018-09-02T08:46:06.784Z,18560.00
2018-09-02T08:47:06.775Z,17856.00
2018-09-02T08:48:06.760Z,15696.00
2018-09-02T08:49:06.750Z,15920.00
2018-09-02T08:50:06.740Z,18144.00
2018-09-02T08:51:06.728Z,18624.00
2018-09-02T08:52:06.714Z,19840.00
2018-09-02T08:53:06.701Z,19200.00
2018-09-02T08:54:06.690Z,17556.00
2018-09-02T08:55:06.686Z,17332.00
2018-09-02T08:56:06.684Z,18016.00
2018-09-02T08:57:06.660Z,17664.00
2018-09-02T08:58:06.652Z,18048.00
2018-09-02T08:59:06.641Z,18304.00
2018-09-02T09:00:06.625Z,18592.00
2018-09-02T09:01:06.612Z,17456.00
2018-09-02T09:02:06.616Z,18624.00
2018-09-02T09:03:06.602Z,18752.00
2018-09-02T09:04:06.578Z,19936.00
2018-09-02T09:05:06.571Z,21088.00
2018-09-02T09:06:06.563Z,22496.00
2018-09-02T09:07:06.553Z,21504.00
2018-09-02T09:08:06.587Z,20608.00
2018-09-02T09:09:07.594Z,19904.00
2018-09-02T09:10:06.515Z,20608.00
2018-09-02T09:11:06.511Z,21920.00
2018-09-02T09:12:06.495Z,21088.00
2018-09-02T09:13:06.490Z,20000.00
2018-09-02T09:14:06.600Z,17792.00
2018-09-02T09:15:06.470Z,17244.00
2018-09-02T09:16:06.451Z,18080.00
2018-09-02T09:17:06.556Z,19040.00
2018-09-02T09:18:06.434Z,19616.00
2018-09-02T09:19:06.422Z,20736.00
2018-09-02T09:20:06.418Z,21408.00
2018-09-02T09:21:06.402Z,16368.00
2018-09-02T09:22:06.442Z,13412.00
2018-09-02T09:23:06.383Z,11400.00
2018-09-02T09:24:06.440Z,11964.00
2018-09-02T09:25:06.423Z,11968.00
2018-09-02T09:26:06.355Z,11504.00
2018-09-02T09:27:06.339Z,12616.00
2018-09-02T09:28:06.330Z,12528.00
2018-09-02T09:29:06.330Z,11756.00
2018-09-02T09:30:06.314Z,11240.00
2018-09-02T09:31:06.320Z,11356.00
2018-09-02T09:32:06.299Z,11028.00
2018-09-02T09:33:06.278Z,11328.00
2018-09-02T09:34:06.272Z,11832.00
2018-09-02T09:35:06.259Z,11952.00
2018-09-02T09:36:06.253Z,11892.00
2018-09-02T09:37:06.243Z,12132.00
2018-09-02T09:38:06.227Z,12228.00
2018-09-02T09:39:06.214Z,13064.00
2018-09-02T09:40:06.204Z,14600.00
2018-09-02T09:41:06.195Z,15140.00
2018-09-02T09:42:06.182Z,14464.00
2018-09-02T09:43:06.176Z,13440.00
2018-09-02T09:44:06.159Z,12844.00
2018-09-02T09:45:06.150Z,11188.00
2018-09-02T09:46:06.241Z,10664.00
2018-09-02T09:47:06.127Z,9872.00
2018-09-02T09:48:06.120Z,8732.00
2018-09-02T09:49:06.117Z,7236.00
2018-09-02T09:50:06.101Z,6080.00
2018-09-02T09:51:06.085Z,5600.00
2018-09-02T09:52:06.079Z,5600.00
2018-09-02T09:53:06.069Z,5420.00
2018-09-02T09:54:06.057Z,5272.00
2018-09-02T09:55:06.044Z,4992.00
2018-09-02T09:56:06.032Z,4964.00
2018-09-02T09:57:06.021Z,5060.00
2018-09-02T09:58:06.034Z,4996.00
2018-09-02T09:59:05.999Z,4932.00
2018-09-02T10:00:05.986Z,5372.00
2018-09-02T10:01:05.977Z,5596.00
2018-09-02T10:02:05.958Z,5560.00
2018-09-02T10:03:05.949Z,5736.00
2018-09-02T10:04:05.936Z,6084.00
2018-09-02T10:05:05.927Z,6120.00
2018-09-02T10:06:05.917Z,5912.00
2018-09-02T10:07:05.902Z,5588.00
2018-09-02T10:08:05.891Z,5840.00
2018-09-02T10:09:05.876Z,6700.00
2018-09-02T10:10:05.866Z,6720.00
2018-09-02T10:11:05.851Z,6432.00
2018-09-02T10:12:05.843Z,6424.00
2018-09-02T10:13:05.836Z,7000.00
2018-09-02T10:14:05.817Z,7444.00
2018-09-02T10:15:05.802Z,7752.00
2018-09-02T10:16:05.799Z,7748.00
2018-09-02T10:17:05.823Z,8368.00
2018-09-02T10:18:05.798Z,8700.00
2018-09-02T10:19:05.751Z,8484.00
2018-09-02T10:20:05.744Z,8080.00
2018-09-02T10:21:05.738Z,8176.00
2018-09-02T10:22:05.715Z,8716.00
2018-09-02T10:23:05.702Z,9620.00
2018-09-02T10:24:05.695Z,8716.00
2018-09-02T10:25:05.677Z,8396.00
2018-09-02T10:26:05.674Z,8260.00
2018-09-02T10:27:05.650Z,8280.00
2018-09-02T10:28:05.638Z,7984.00
2018-09-02T10:29:05.626Z,8452.00
2018-09-02T10:30:05.616Z,9804.00
2018-09-02T10:31:05.602Z,8796.00
2018-09-02T10:32:05.587Z,8032.00
2018-09-02T10:33:05.581Z,7960.00
2018-09-02T10:34:05.567Z,8852.00
2018-09-02T10:35:05.559Z,9160.00
2018-09-02T10:36:05.553Z,9680.00
2018-09-02T10:37:05.535Z,9440.00
2018-09-02T10:38:05.522Z,9888.00
2018-09-02T10:39:05.503Z,10412.00
2018-09-02T10:40:05.493Z,11040.00
2018-09-02T10:41:05.552Z,10976.00
2018-09-02T10:42:05.467Z,10568.00
2018-09-02T10:43:05.465Z,9640.00
2018-09-02T10:44:05.451Z,9328.00
2018-09-02T10:45:05.426Z,9436.00
2018-09-02T10:46:05.420Z,9412.00
2018-09-02T10:47:05.407Z,9140.00
2018-09-02T10:48:05.396Z,8964.00
2018-09-02T10:49:05.381Z,8456.00
2018-09-02T10:50:05.369Z,8004.00
2018-09-02T10:51:05.359Z,7904.00
2018-09-02T10:52:05.349Z,7768.00
2018-09-02T10:53:05.333Z,7956.00
2018-09-02T10:54:05.327Z,8068.00
2018-09-02T10:55:05.312Z,8056.00
2018-09-02T10:56:05.301Z,7960.00
2018-09-02T10:57:05.283Z,7836.00
2018-09-02T10:58:05.276Z,7900.00
2018-09-02T10:59:05.260Z,7628.00
2018-09-02T11:00:05.250Z,7668.00
2018-09-02T11:01:05.235Z,7708.00
2018-09-02T11:02:05.222Z,8056.00
2018-09-02T11:03:05.212Z,8352.00
2018-09-02T11:04:05.203Z,8344.00
2018-09-02T11:05:05.183Z,8040.00
2018-09-02T11:06:05.170Z,8144.00
2018-09-02T11:07:05.167Z,8080.00
2018-09-02T11:08:05.150Z,8152.00
2018-09-02T11:09:05.138Z,8248.00
2018-09-02T11:10:05.125Z,8436.00
2018-09-02T11:11:05.112Z,8828.00
2018-09-02T11:12:05.106Z,8788.00
2018-09-02T11:13:05.138Z,8288.00
2018-09-02T11:14:05.083Z,7924.00
2018-09-02T11:15:05.061Z,6596.00
2018-09-02T11:16:05.051Z,5996.00
2018-09-02T11:17:05.035Z,5812.00
2018-09-02T11:18:05.029Z,5784.00
2018-09-02T11:19:05.013Z,5416.00
2018-09-02T11:20:05.013Z,5124.00
2018-09-02T11:21:04.994Z,4592.00
2018-09-02T11:22:04.981Z,4332.00
2018-09-02T11:23:04.964Z,4392.00
2018-09-02T11:24:04.954Z,4620.00
2018-09-02T11:25:04.958Z,4556.00
2018-09-02T11:26:04.923Z,4420.00
2018-09-02T11:27:04.928Z,4292.00
2018-09-02T11:28:04.900Z,4156.00
2018-09-02T11:29:04.887Z,4324.00
2018-09-02T11:30:04.884Z,5004.00
2018-09-02T11:31:04.864Z,5432.00
2018-09-02T11:32:04.858Z,5168.00
2018-09-02T11:33:04.843Z,4888.00
2018-09-02T11:34:04.886Z,4788.00
2018-09-02T11:35:04.816Z,4692.00
2018-09-02T11:36:04.806Z,4532.00
2018-09-02T11:37:04.794Z,4920.00
2018-09-02T11:38:04.778Z,5560.00
2018-09-02T11:39:04.766Z,6380.00
2018-09-02T11:40:04.750Z,7180.00
2018-09-02T11:41:04.740Z,7092.00
2018-09-02T11:42:04.728Z,7220.00
2018-09-02T11:43:04.718Z,7672.00
2018-09-02T11:44:04.699Z,9572.00
2018-09-02T11:45:04.701Z,11476.00
2018-09-02T11:46:04.683Z,13024.00
2018-09-02T11:47:04.665Z,13612.00
2018-09-02T11:48:04.647Z,13044.00
2018-09-02T11:49:04.635Z,11864.00
2018-09-02T11:50:04.622Z,11360.00
2018-09-02T11:51:04.618Z,11740.00
2018-09-02T11:52:04.600Z,12584.00
2018-09-02T11:53:04.587Z,12692.00
2018-09-02T11:54:04.577Z,13808.00
2018-09-02T11:55:04.565Z,15376.00
2018-09-02T11:56:04.552Z,16132.00
2018-09-02T11:57:04.539Z,16360.00
2018-09-02T11:58:04.533Z,17112.00
2018-09-02T11:59:04.520Z,19872.00
2018-09-02T12:00:04.507Z,20992.00
2018-09-02T12:01:04.494Z,17668.00
2018-09-02T12:02:04.501Z,15516.00
2018-09-02T12:03:04.469Z,15492.00
2018-09-02T12:04:04.495Z,14548.00
2018-09-02T12:05:04.451Z,12716.00
2018-09-02T12:06:04.436Z,11420.00
2018-09-02T12:07:04.430Z,11224.00
2018-09-02T12:08:04.420Z,10580.00
2018-09-02T12:09:04.441Z,9432.00
2018-09-02T12:10:04.389Z,8364.00
2018-09-02T12:11:04.380Z,8224.00
2018-09-02T12:12:04.368Z,8292.00
2018-09-02T12:13:04.357Z,8220.00
2018-09-02T12:14:04.354Z,8436.00
2018-09-02T12:15:04.338Z,8780.00
2018-09-02T12:16:04.332Z,9420.00
2018-09-02T12:17:04.315Z,9776.00
2018-09-02T12:18:04.303Z,10000.00
2018-09-02T12:19:04.299Z,9624.00
2018-09-02T12:20:04.283Z,9492.00
2018-09-02T12:21:04.267Z,8860.00
2018-09-02T12:22:04.251Z,8560.00
2018-09-02T12:23:04.241Z,8488.00
2018-09-02T12:24:04.229Z,8724.00
2018-09-02T12:25:04.223Z,9128.00
2018-09-02T12:26:04.212Z,9536.00
2018-09-02T12:27:04.197Z,10184.00